CMA CGM Butterfly — A8NO8 — position and weather

sailwx.info

Track history (hours):
 
Tides and Currents Weather Stations Pressure Air Temp Water Temp Dewpoint Dewpoint Depression Visibility Wind Speed Wind Dir Waves Ship Positions

CMA CGM Butterfly

Last reported at 2014-Sep-30 02:33 UTC. Time now 2014-Sep-30 19:57 UTC.
Position N 35°59' W 005°20'.

Length 350 m; draft 12.8 m.

Type: Ship (hazmat cat A). MMSI: 636091420.

Date/timePositionNaut miles runAvg speedWind from/ knotsBaromVisibWave heightAir tempDewpointWater temp
2014-Sep-30 02:33N 35°59' W 005°20'6 0.2
2014-Sep-28 21:27N 35°59' W 005°27'9 4.2
2014-Sep-28 19:13N 36°08' W 005°26'0 0.0
2014-Sep-28 18:16N 36°08' W 005°26'0 0.0
2014-Sep-28 17:31N 36°08' W 005°26'0 0.0
2014-Sep-28 16:28N 36°08' W 005°26'0 0.0
2014-Sep-28 15:28N 36°08' W 005°26'0 0.0
2014-Sep-28 14:31N 36°08' W 005°26'0 0.0
2014-Sep-28 13:31N 36°08' W 005°26'0 0.0
2014-Sep-28 12:31N 36°08' W 005°26'223 4.5
2014-Sep-26 11:33N 37°15' W 001°01'1414.0
2014-Sep-26 10:33N 37°24' W 000°48'1515.1
2014-Sep-26 09:33N 37°34' W 000°33'1515.2
2014-Sep-26 08:34N 37°45' W 000°20'1515.0
2014-Sep-26 07:34N 37°57' W 000°08'11614.4
2014-Sep-25 23:31N 39°20' E 001°36'1414.3
2014-Sep-25 22:33N 39°28' E 001°50'1414.3
2014-Sep-25 21:33N 39°38' E 002°04'1414.0
2014-Sep-25 20:33N 39°46' E 002°18'1414.2
2014-Sep-25 19:33N 39°55' E 002°33'1414.5
2014-Sep-25 18:33N 40°04' E 002°47'1414.4
2014-Sep-25 17:33N 40°13' E 003°02'1514.3
2014-Sep-25 16:32N 40°22' E 003°18'5914.5
2014-Sep-25 12:27N 40°57' E 004°20'24514.5
2014-Sep-24 19:29N 43°24' E 008°45'1314.5
2014-Sep-24 18:34N 43°32' E 008°60'1514.5
2014-Sep-24 17:34N 43°41' E 009°16'1414.4
2014-Sep-24 16:34N 43°50' E 009°31'1414.4
2014-Sep-24 15:34N 43°58' E 009°48'8 8.3
2014-Sep-24 14:33N 44°06' E 009°51'0 0.0
2014-Sep-24 13:33N 44°06' E 009°51'0 0.0
2014-Sep-24 12:33N 44°06' E 009°51'0 0.0
2014-Sep-24 11:33N 44°06' E 009°51'0 0.0
2014-Sep-24 10:33N 44°06' E 009°51'0 0.0
2014-Sep-24 09:33N 44°06' E 009°51'0 0.0
2014-Sep-24 08:33N 44°06' E 009°51'0 0.0
2014-Sep-24 07:33N 44°06' E 009°51'0 0.0
2014-Sep-24 06:33N 44°06' E 009°51'0 0.0
2014-Sep-24 05:33N 44°06' E 009°51'0 0.0
2014-Sep-24 04:33N 44°06' E 009°51'0 0.0
2014-Sep-24 03:33N 44°06' E 009°51'0 0.0
2014-Sep-24 02:33N 44°06' E 009°51'0 0.0
2014-Sep-24 01:33N 44°06' E 009°51'0 0.0
2014-Sep-24 00:33N 44°06' E 009°51'0 0.0
2014-Sep-23 23:33N 44°06' E 009°51'0 0.0
2014-Sep-23 22:33N 44°06' E 009°51'0 0.0
2014-Sep-23 21:33N 44°06' E 009°51'3 2.6
2014-Sep-23 20:33N 44°04' E 009°51'8 7.5
2014-Sep-23 19:33N 43°58' E 009°58'1 0.8
2014-Sep-23 18:33N 43°58' E 009°59'2 1.5
2014-Sep-23 17:33N 43°58' E 009°57'1 0.8
2014-Sep-23 16:33N 43°58' E 009°57'1 1.2
2014-Sep-23 15:33N 43°59' E 009°57'5 5.3
2014-Sep-23 14:33N 43°55' E 009°51'6 6.4
2014-Sep-23 13:33N 43°59' E 009°43'1111.3
2014-Sep-23 12:33N 44°05' E 009°30'1211.7
2014-Sep-23 11:33N 44°10' E 009°15'1211.6
2014-Sep-23 10:33N 44°14' E 009°00'1111.1
2014-Sep-23 09:33N 44°19' E 008°46'6 6.2
2014-Sep-23 08:33N 44°25' E 008°47'1 0.6
2014-Sep-23 07:30N 44°25' E 008°48'0 0.0
2014-Sep-23 06:30N 44°25' E 008°48'0 0.0
2014-Sep-23 05:24N 44°25' E 008°48'0 0.0
2014-Sep-23 04:30N 44°25' E 008°48'0 0.0
2014-Sep-23 03:30N 44°25' E 008°48'0 0.0
2014-Sep-23 02:33N 44°25' E 008°48'0 0.0
2014-Sep-23 01:33N 44°25' E 008°48'0 0.0
2014-Sep-23 00:33N 44°25' E 008°48'0 0.0
2014-Sep-22 23:33N 44°25' E 008°48'0 0.0
2014-Sep-22 22:33N 44°25' E 008°48'0 0.0
2014-Sep-22 21:27N 44°25' E 008°48'0 0.0
2014-Sep-22 20:15N 44°25' E 008°48'0 0.0
2014-Sep-22 19:33N 44°25' E 008°48'0 0.0
2014-Sep-22 18:33N 44°25' E 008°48'0 0.0
2014-Sep-22 17:27N 44°25' E 008°48'0 0.0
2014-Sep-22 15:30N 44°25' E 008°48'0 0.0
2014-Sep-22 14:30N 44°25' E 008°48'0 0.0
2014-Sep-22 13:33N 44°25' E 008°48'0 0.0
2014-Sep-22 12:30N 44°25' E 008°48'0 0.0
2014-Sep-22 11:33N 44°25' E 008°48'0 0.0
2014-Sep-22 10:30N 44°25' E 008°48'0 0.0
2014-Sep-22 08:12N 44°25' E 008°48'0 0.0
2014-Sep-22 07:33N 44°25' E 008°48'0 0.0
2014-Sep-22 06:33N 44°25' E 008°48'0 0.0
2014-Sep-22 05:33N 44°25' E 008°48'0 0.0
2014-Sep-22 04:33N 44°25' E 008°48'0 0.0
2014-Sep-22 03:33N 44°25' E 008°48'0 0.0
2014-Sep-22 02:33N 44°25' E 008°48'0 0.0
2014-Sep-22 01:33N 44°25' E 008°48'0 0.0
2014-Sep-22 00:33N 44°25' E 008°48'0 0.0
2014-Sep-21 23:30N 44°25' E 008°48'0 0.0
2014-Sep-21 22:30N 44°25' E 008°48'0 0.0
2014-Sep-21 21:24N 44°25' E 008°48'0 0.0
2014-Sep-21 20:33N 44°25' E 008°48'0 0.0
2014-Sep-21 19:33N 44°25' E 008°48'0 0.0
2014-Sep-21 18:33N 44°25' E 008°48'0 0.0
2014-Sep-21 17:30N 44°25' E 008°48'0 0.0
2014-Sep-21 16:33N 44°25' E 008°48'0 0.0
2014-Sep-21 15:33N 44°25' E 008°48'0 0.0
2014-Sep-21 14:33N 44°25' E 008°48'0 0.0
2014-Sep-21 13:30N 44°25' E 008°48'0 0.0
2014-Sep-21 12:30N 44°25' E 008°48'0 0.0
2014-Sep-21 11:30N 44°25' E 008°48'0 0.0
2014-Sep-21 10:33N 44°25' E 008°48'0 0.0
2014-Sep-21 09:32N 44°25' E 008°48'5 5.2
2014-Sep-21 08:33N 44°22' E 008°43'1211.8
2014-Sep-21 07:34N 44°10' E 008°48'1514.5
2014-Sep-21 06:34N 43°57' E 008°57'1515.3
2014-Sep-21 05:33N 43°44' E 009°07'1515.1
2014-Sep-21 04:34N 43°30' E 009°15'1515.1
2014-Sep-21 03:34N 43°16' E 009°24'1515.5
2014-Sep-21 02:34N 43°02' E 009°33'1515.4
2014-Sep-21 01:34N 42°47' E 009°39'1615.4
2014-Sep-21 00:30N 42°31' E 009°43'1615.3
2014-Sep-20 23:26N 42°16' E 009°47'1415.4
2014-Sep-20 22:32N 42°02' E 009°51'1515.1
2014-Sep-20 21:32N 41°47' E 009°55'1514.9
2014-Sep-20 20:33N 41°33' E 009°59'1514.8
2014-Sep-20 19:32N 41°19' E 010°06'1414.7
2014-Sep-20 18:34N 41°05' E 010°13'1514.8
2014-Sep-20 17:33N 40°52' E 010°21'  
Track history (hours):
 
Tides and Currents Weather Stations Pressure Air Temp Water Temp Dewpoint Dewpoint Depression Visibility Wind Speed Wind Dir Waves Ship Positions

CMA CGM Butterfly

Last reported at 2014-Sep-30 02:33 UTC. Time now 2014-Sep-30 19:57 UTC.
Position N 35°59' W 005°20'.

Length 350 m; draft 12.8 m.

Type: Ship (hazmat cat A). MMSI: 636091420.

Date/timePositionNaut miles runAvg speedWind from/ knotsBaromVisibWave heightAir tempDewpointWater temp
2014-Sep-30 02:33N 35°59' W 005°20'6 0.2
2014-Sep-28 21:27N 35°59' W 005°27'9 4.2
2014-Sep-28 19:13N 36°08' W 005°26'0 0.0
2014-Sep-28 18:16N 36°08' W 005°26'0 0.0
2014-Sep-28 17:31N 36°08' W 005°26'0 0.0
2014-Sep-28 16:28N 36°08' W 005°26'0 0.0
2014-Sep-28 15:28N 36°08' W 005°26'0 0.0
2014-Sep-28 14:31N 36°08' W 005°26'0 0.0
2014-Sep-28 13:31N 36°08' W 005°26'0 0.0
2014-Sep-28 12:31N 36°08' W 005°26'223 4.5
2014-Sep-26 11:33N 37°15' W 001°01'1414.0
2014-Sep-26 10:33N 37°24' W 000°48'1515.1
2014-Sep-26 09:33N 37°34' W 000°33'1515.2
2014-Sep-26 08:34N 37°45' W 000°20'1515.0
2014-Sep-26 07:34N 37°57' W 000°08'11614.4
2014-Sep-25 23:31N 39°20' E 001°36'1414.3
2014-Sep-25 22:33N 39°28' E 001°50'1414.3
2014-Sep-25 21:33N 39°38' E 002°04'1414.0
2014-Sep-25 20:33N 39°46' E 002°18'1414.2
2014-Sep-25 19:33N 39°55' E 002°33'1414.5
2014-Sep-25 18:33N 40°04' E 002°47'1414.4
2014-Sep-25 17:33N 40°13' E 003°02'1514.3
2014-Sep-25 16:32N 40°22' E 003°18'5914.5
2014-Sep-25 12:27N 40°57' E 004°20'24514.5
2014-Sep-24 19:29N 43°24' E 008°45'1314.5
2014-Sep-24 18:34N 43°32' E 008°60'1514.5
2014-Sep-24 17:34N 43°41' E 009°16'1414.4
2014-Sep-24 16:34N 43°50' E 009°31'1414.4
2014-Sep-24 15:34N 43°58' E 009°48'8 8.3
2014-Sep-24 14:33N 44°06' E 009°51'0 0.0
2014-Sep-24 13:33N 44°06' E 009°51'0 0.0
2014-Sep-24 12:33N 44°06' E 009°51'0 0.0
2014-Sep-24 11:33N 44°06' E 009°51'0 0.0
2014-Sep-24 10:33N 44°06' E 009°51'0 0.0
2014-Sep-24 09:33N 44°06' E 009°51'0 0.0
2014-Sep-24 08:33N 44°06' E 009°51'0 0.0
2014-Sep-24 07:33N 44°06' E 009°51'0 0.0
2014-Sep-24 06:33N 44°06' E 009°51'0 0.0
2014-Sep-24 05:33N 44°06' E 009°51'0 0.0
2014-Sep-24 04:33N 44°06' E 009°51'0 0.0
2014-Sep-24 03:33N 44°06' E 009°51'0 0.0
2014-Sep-24 02:33N 44°06' E 009°51'0 0.0
2014-Sep-24 01:33N 44°06' E 009°51'0 0.0
2014-Sep-24 00:33N 44°06' E 009°51'0 0.0
2014-Sep-23 23:33N 44°06' E 009°51'0 0.0
2014-Sep-23 22:33N 44°06' E 009°51'0 0.0
2014-Sep-23 21:33N 44°06' E 009°51'3 2.6
2014-Sep-23 20:33N 44°04' E 009°51'8 7.5
2014-Sep-23 19:33N 43°58' E 009°58'1 0.8
2014-Sep-23 18:33N 43°58' E 009°59'2 1.5
2014-Sep-23 17:33N 43°58' E 009°57'1 0.8
2014-Sep-23 16:33N 43°58' E 009°57'1 1.2
2014-Sep-23 15:33N 43°59' E 009°57'5 5.3
2014-Sep-23 14:33N 43°55' E 009°51'6 6.4
2014-Sep-23 13:33N 43°59' E 009°43'1111.3
2014-Sep-23 12:33N 44°05' E 009°30'1211.7
2014-Sep-23 11:33N 44°10' E 009°15'1211.6
2014-Sep-23 10:33N 44°14' E 009°00'1111.1
2014-Sep-23 09:33N 44°19' E 008°46'6 6.2
2014-Sep-23 08:33N 44°25' E 008°47'1 0.6
2014-Sep-23 07:30N 44°25' E 008°48'0 0.0
2014-Sep-23 06:30N 44°25' E 008°48'0 0.0
2014-Sep-23 05:24N 44°25' E 008°48'0 0.0
2014-Sep-23 04:30N 44°25' E 008°48'0 0.0
2014-Sep-23 03:30N 44°25' E 008°48'0 0.0
2014-Sep-23 02:33N 44°25' E 008°48'0 0.0
2014-Sep-23 01:33N 44°25' E 008°48'0 0.0
2014-Sep-23 00:33N 44°25' E 008°48'0 0.0
2014-Sep-22 23:33N 44°25' E 008°48'0 0.0
2014-Sep-22 22:33N 44°25' E 008°48'0 0.0
2014-Sep-22 21:27N 44°25' E 008°48'0 0.0
2014-Sep-22 20:15N 44°25' E 008°48'0 0.0
2014-Sep-22 19:33N 44°25' E 008°48'0 0.0
2014-Sep-22 18:33N 44°25' E 008°48'0 0.0
2014-Sep-22 17:27N 44°25' E 008°48'0 0.0
2014-Sep-22 15:30N 44°25' E 008°48'0 0.0
2014-Sep-22 14:30N 44°25' E 008°48'0 0.0
2014-Sep-22 13:33N 44°25' E 008°48'0 0.0
2014-Sep-22 12:30N 44°25' E 008°48'0 0.0
2014-Sep-22 11:33N 44°25' E 008°48'0 0.0
2014-Sep-22 10:30N 44°25' E 008°48'0 0.0
2014-Sep-22 08:12N 44°25' E 008°48'0 0.0
2014-Sep-22 07:33N 44°25' E 008°48'0 0.0
2014-Sep-22 06:33N 44°25' E 008°48'0 0.0
2014-Sep-22 05:33N 44°25' E 008°48'0 0.0
2014-Sep-22 04:33N 44°25' E 008°48'0 0.0
2014-Sep-22 03:33N 44°25' E 008°48'0 0.0
2014-Sep-22 02:33N 44°25' E 008°48'0 0.0
2014-Sep-22 01:33N 44°25' E 008°48'0 0.0
2014-Sep-22 00:33N 44°25' E 008°48'0 0.0
2014-Sep-21 23:30N 44°25' E 008°48'0 0.0
2014-Sep-21 22:30N 44°25' E 008°48'0 0.0
2014-Sep-21 21:24N 44°25' E 008°48'0 0.0
2014-Sep-21 20:33N 44°25' E 008°48'0 0.0
2014-Sep-21 19:33N 44°25' E 008°48'0 0.0
2014-Sep-21 18:33N 44°25' E 008°48'0 0.0
2014-Sep-21 17:30N 44°25' E 008°48'0 0.0
2014-Sep-21 16:33N 44°25' E 008°48'0 0.0
2014-Sep-21 15:33N 44°25' E 008°48'0 0.0
2014-Sep-21 14:33N 44°25' E 008°48'0 0.0
2014-Sep-21 13:30N 44°25' E 008°48'0 0.0
2014-Sep-21 12:30N 44°25' E 008°48'0 0.0
2014-Sep-21 11:30N 44°25' E 008°48'0 0.0
2014-Sep-21 10:33N 44°25' E 008°48'0 0.0
2014-Sep-21 09:32N 44°25' E 008°48'5 5.2
2014-Sep-21 08:33N 44°22' E 008°43'1211.8
2014-Sep-21 07:34N 44°10' E 008°48'1514.5
2014-Sep-21 06:34N 43°57' E 008°57'1515.3
2014-Sep-21 05:33N 43°44' E 009°07'1515.1
2014-Sep-21 04:34N 43°30' E 009°15'1515.1
2014-Sep-21 03:34N 43°16' E 009°24'1515.5
2014-Sep-21 02:34N 43°02' E 009°33'1515.4
2014-Sep-21 01:34N 42°47' E 009°39'1615.4
2014-Sep-21 00:30N 42°31' E 009°43'1615.3
2014-Sep-20 23:26N 42°16' E 009°47'1415.4
2014-Sep-20 22:32N 42°02' E 009°51'1515.1
2014-Sep-20 21:32N 41°47' E 009°55'1514.9
2014-Sep-20 20:33N 41°33' E 009°59'1514.8
2014-Sep-20 19:32N 41°19' E 010°06'1414.7
2014-Sep-20 18:34N 41°05' E 010°13'1514.8
2014-Sep-20 17:33N 40°52' E 010°21'  

Dump ship's entire track history